Time;durP1;ratioP1;P1;durP2;ratioP2;P2;SDS_P1;SDS_P2;PMS_P1;PMS_P2;Temp;Humidity;BMP_temperature;BMP_pressure;BME280_temperature;BME280_humidity;BME280_pressure;Samples;Min_cycle;Max_cycle;Signal;HPM_P1;HPM_P2
2023/01/28 00:01:17;;;;;;;3.20;2.90;;;;;;;5.12;100.00;97370.06;5051379;28;20193;-64
2023/01/28 00:03:43;;;;;;;6.45;4.32;;;;;;;5.19;100.00;97383.31;5051212;28;20194;-64
2023/01/28 00:06:13;;;;;;;3.00;2.80;;;;;;;5.18;100.00;97374.00;5051116;28;20198;-64
2023/01/28 00:08:40;;;;;;;3.67;3.38;;;;;;;5.11;100.00;97353.03;5051401;28;20205;-64
2023/01/28 00:11:07;;;;;;;3.20;2.97;;;;;;;5.31;100.00;97390.22;5051076;28;20628;-64
2023/01/28 00:13:33;;;;;;;2.13;2.00;;;;;;;5.16;100.00;97386.06;5051444;28;20656;-64
2023/01/28 00:16:03;;;;;;;2.35;2.25;;;;;;;5.14;100.00;97388.72;5053634;28;20192;-64
2023/01/28 00:18:30;;;;;;;2.67;2.47;;;;;;;4.77;100.00;97343.25;5035107;28;20225;-64
2023/01/28 00:21:00;;;;;;;2.90;2.70;;;;;;;5.09;100.00;97401.03;5053487;28;20557;-64
2023/01/28 00:23:27;;;;;;;2.38;2.22;;;;;;;4.61;100.00;97301.56;5053200;28;20273;-64
2023/01/28 00:25:53;;;;;;;2.30;2.10;;;;;;;4.86;100.00;97363.19;5053069;28;20237;-63
2023/01/28 00:28:20;;;;;;;2.28;2.15;;;;;;;4.86;100.00;97344.41;5053146;28;20258;-64
2023/01/28 00:30:45;;;;;;;2.08;1.98;;;;;;;5.17;100.00;97391.09;5053596;28;20177;-64
2023/01/28 00:33:13;;;;;;;2.67;1.83;;;;;;;5.30;100.00;97403.97;5053065;28;20170;-64
2023/01/28 00:35:38;;;;;;;1.98;1.88;;;;;;;5.40;100.00;97416.09;5052894;28;20178;-63
2023/01/28 00:38:04;;;;;;;1.88;1.77;;;;;;;5.28;100.00;97398.09;5052610;28;20603;-64
2023/01/28 00:40:30;;;;;;;2.20;2.10;;;;;;;5.50;100.00;97431.72;5052866;28;20185;-64
2023/01/28 00:42:56;;;;;;;2.38;2.17;;;;;;;5.14;100.00;97378.47;5052506;28;20185;-63
2023/01/28 00:45:21;;;;;;;2.50;2.30;;;;;;;5.49;100.00;97430.88;5052429;28;20185;-64
2023/01/28 00:47:47;;;;;;;2.08;1.98;;;;;;;5.02;100.00;97384.34;5052774;28;20182;-64
2023/01/28 00:50:13;;;;;;;2.22;2.03;;;;;;;5.22;100.00;97419.84;5052745;28;20548;-64
2023/01/28 00:52:38;;;;;;;2.05;1.95;;;;;;;5.06;100.00;97419.16;5052703;28;20173;-64
2023/01/28 00:55:04;;;;;;;2.63;2.42;;;;;;;5.16;100.00;97421.94;5052405;28;20663;-64
2023/01/28 00:57:32;;;;;;;2.72;2.53;;;;;;;5.22;100.00;97421.56;5052442;28;20174;-63
2023/01/28 00:59:58;;;;;;;2.83;2.25;;;;;;;5.12;100.00;97418.75;5052259;28;20559;-64
2023/01/28 01:02:24;;;;;;;2.17;1.98;;;;;;;5.26;100.00;97428.16;5052586;28;20178;-64
2023/01/28 01:04:59;;;;;;;3.90;3.40;;;;;;;5.31;100.00;97439.75;5052522;28;20690;-64
2023/01/28 01:07:42;;;;;;;2.55;2.45;;;;;;;5.06;100.00;97396.06;5052798;28;20254;-64
2023/01/28 01:10:17;;;;;;;2.42;2.33;;;;;;;5.40;100.00;97431.50;5052457;28;20664;-64
2023/01/28 01:12:44;;;;;;;2.58;2.22;;;;;;;4.99;100.00;97388.84;5052746;28;20628;-64
2023/01/28 01:15:10;;;;;;;2.92;2.67;;;;;;;5.14;100.00;97400.72;5053196;28;20558;-64
2023/01/28 01:17:37;;;;;;;3.47;3.28;;;;;;;5.13;100.00;97387.06;5052282;28;20269;-64
2023/01/28 01:20:05;;;;;;;2.67;2.47;;;;;;;5.28;100.00;97427.16;5052876;28;20170;-64
2023/01/28 01:22:34;;;;;;;3.28;2.97;;;;;;;5.08;100.00;97389.09;5052284;28;20177;-64
2023/01/28 01:25:03;;;;;;;2.38;2.17;;;;;;;5.00;100.00;97375.97;5052242;28;20177;-63
2023/01/28 01:27:29;;;;;;;2.40;2.28;;;;;;;5.10;100.00;97386.44;5052114;28;20301;-64
2023/01/28 01:29:55;;;;;;;2.78;2.58;;;;;;;5.21;100.00;97405.38;5052181;28;20212;-64
2023/01/28 01:32:21;;;;;;;2.88;2.67;;;;;;;5.15;100.00;97400.63;5030325;28;20214;-64
2023/01/28 01:34:47;;;;;;;2.65;2.45;;;;;;;5.20;100.00;97411.41;5030147;28;20190;-64
2023/01/28 01:37:12;;;;;;;2.50;2.30;;;;;;;5.17;100.00;97396.22;5029768;28;20210;-63
2023/01/28 01:39:37;;;;;;;2.53;2.42;;;;;;;5.27;100.00;97424.66;5030777;28;20174;-64
2023/01/28 01:42:03;;;;;;;2.30;2.13;;;;;;;5.24;100.00;97407.72;5010484;28;20183;-63
2023/01/28 01:45:05;;;;;;;3.05;2.85;;;;;;;5.61;100.00;97466.06;5010362;28;20191;-64
2023/01/28 01:47:39;;;;;;;2.20;2.10;;;;;;;5.46;100.00;97449.06;5010491;28;20222;-64
2023/01/28 01:50:12;;;;;;;2.75;2.55;;;;;;;4.89;100.00;97365.56;5010122;28;20203;-64
2023/01/28 01:52:39;;;;;;;2.75;2.55;;;;;;;5.46;100.00;97472.16;5010922;28;20408;-64
2023/01/28 01:55:11;;;;;;;2.50;2.30;;;;;;;5.46;100.00;97482.41;5010019;28;20183;-63
2023/01/28 01:57:37;;;;;;;2.15;2.05;;;;;;;5.11;100.00;97419.69;5010825;28;20223;-64
2023/01/28 02:00:06;;;;;;;2.45;2.20;;;;;;;5.46;100.00;97481.56;5010033;28;20278;-63
2023/01/28 02:02:39;;;;;;;2.40;2.20;;;;;;;5.37;100.00;97466.78;5016867;28;20208;-64
2023/01/28 02:05:06;;;;;;;2.58;2.38;;;;;;;5.13;100.00;97432.41;5050194;28;20178;-64
2023/01/28 02:07:32;;;;;;;3.03;2.83;;;;;;;5.35;100.00;97474.56;5049572;28;20226;-64
2023/01/28 02:09:57;;;;;;;3.45;3.15;;;;;;;5.36;100.00;97478.75;5052644;28;20264;-63
2023/01/28 02:12:28;;;;;;;1.83;1.73;;;;;;;5.38;100.00;97474.38;5053824;28;20653;-64
2023/01/28 02:15:01;;;;;;;2.78;2.58;;;;;;;5.33;100.00;97491.78;5056256;28;20158;-64
2023/01/28 02:17:27;;;;;;;2.42;2.22;;;;;;;4.96;100.00;97440.31;5055576;28;20636;-63
2023/01/28 02:20:00;;;;;;;2.13;2.03;;;;;;;5.13;100.00;97484.50;5055575;28;20244;-64
2023/01/28 02:22:34;;;;;;;2.55;2.40;;;;;;;5.06;100.00;97479.84;5056117;28;20682;-64
2023/01/28 02:25:24;;;;;;;3.33;3.03;;;;;;;5.14;100.00;97485.31;5055819;28;20188;-63
2023/01/28 02:28:13;;;;;;;2.88;2.67;;;;;;;5.10;100.00;97500.09;5056287;28;20165;-63
2023/01/28 02:30:44;;;;;;;4.65;2.75;;;;;;;4.82;100.00;97453.97;5035488;28;20664;-64
2023/01/28 02:33:22;;;;;;;3.40;3.08;;;;;;;4.81;100.00;97451.50;5033332;28;20190;-64
2023/01/28 02:35:54;;;;;;;3.38;2.85;;;;;;;5.12;100.00;97500.00;5033015;28;20198;-64
2023/01/28 02:38:26;;;;;;;2.50;2.30;;;;;;;4.87;100.00;97462.22;5033304;28;20287;-64
2023/01/28 02:41:02;;;;;;;2.35;2.20;;;;;;;4.92;100.00;97462.75;5013262;28;20188;-64
2023/01/28 02:43:45;;;;;;;1.70;1.60;;;;;;;4.88;100.00;97455.31;5013320;28;20229;-64
2023/01/28 02:49:15;;;;;;;1.80;1.70;;;;;;;5.13;100.00;97493.94;5013061;28;20179;-64
2023/01/28 02:51:46;;;;;;;2.03;1.80;;;;;;;5.27;100.00;97511.84;5013481;28;20248;-63
2023/01/28 02:54:28;;;;;;;1.90;1.80;;;;;;;5.12;100.00;97510.25;5013240;28;20652;-64
2023/01/28 02:57:11;;;;;;;1.60;1.52;;;;;;;5.26;100.00;97511.00;5013146;28;20696;-64
2023/01/28 03:00:09;;;;;;;2.00;1.60;;;;;;;5.34;100.00;97513.94;5013687;28;20167;-64
2023/01/28 03:02:38;;;;;;;2.00;1.90;;;;;;;5.31;100.00;97519.25;5043214;28;20217;-64
2023/01/28 03:05:21;;;;;;;1.83;1.73;;;;;;;5.04;100.00;97469.69;5052360;28;20194;-64
2023/01/28 03:07:48;;;;;;;1.90;1.80;;;;;;;4.93;100.00;97456.72;5052350;28;20652;-64
2023/01/28 03:10:18;;;;;;;1.98;1.88;;;;;;;5.30;100.00;97517.63;5052819;28;20177;-64
2023/01/28 03:38:59;;;;;;;1.50;1.50;;;;;;;5.06;100.00;97493.47;5054183;28;20257;-63
2023/01/28 03:41:25;;;;;;;2.75;1.48;;;;;;;5.24;100.00;97520.56;5054048;28;20249;-63
2023/01/28 03:43:52;;;;;;;1.55;1.50;;;;;;;5.35;100.00;97546.38;5054034;28;20710;-63
2023/01/28 03:46:18;;;;;;;1.30;1.30;;;;;;;5.02;100.00;97481.75;5054126;28;20216;-64
2023/01/28 03:48:44;;;;;;;1.30;1.30;;;;;;;5.00;100.00;97482.78;5053973;28;20264;-64
2023/01/28 03:51:10;;;;;;;1.40;1.40;;;;;;;5.28;100.00;97536.56;5053870;28;20174;-64
2023/01/28 03:53:38;;;;;;;1.38;1.38;;;;;;;5.09;100.00;97507.84;5054429;28;20189;-64
2023/01/28 03:56:03;;;;;;;1.60;1.50;;;;;;;5.12;100.00;97518.75;5053779;28;20173;-63
2023/01/28 03:58:44;;;;;;;1.38;1.38;;;;;;;5.34;100.00;97551.59;5054293;28;20658;-64
2023/01/28 04:01:10;;;;;;;1.55;1.30;;;;;;;5.01;100.00;97503.19;5053944;28;20169;-64
2023/01/28 04:03:36;;;;;;;1.63;1.60;;;;;;;5.20;100.00;97531.91;5053876;28;20663;-63
2023/01/28 04:06:06;;;;;;;2.50;2.30;;;;;;;5.01;100.00;97516.00;5053447;28;20739;-64
2023/01/28 04:08:32;;;;;;;2.08;1.98;;;;;;;4.87;100.00;97498.09;5054097;28;20170;-64
2023/01/28 04:11:14;;;;;;;2.13;2.03;;;;;;;4.92;100.00;97508.88;5054249;28;20230;-64
2023/01/28 04:13:40;;;;;;;2.22;2.13;;;;;;;4.92;100.00;97506.31;5053997;28;20169;-63
2023/01/28 04:16:06;;;;;;;2.17;1.98;;;;;;;4.97;100.00;97518.84;5053327;28;20268;-63
2023/01/28 04:18:31;;;;;;;1.60;1.50;;;;;;;4.80;100.00;97495.97;5053394;28;20281;-64
2023/01/28 04:20:56;;;;;;;1.75;1.65;;;;;;;4.71;100.00;97496.50;5053277;28;20178;-64
2023/01/28 04:23:22;;;;;;;1.55;1.45;;;;;;;5.06;100.00;97551.59;5053272;28;20257;-63
2023/01/28 04:25:50;;;;;;;1.40;1.40;;;;;;;5.12;100.00;97554.63;5052826;28;20212;-64
2023/01/28 04:28:15;;;;;;;1.58;1.48;;;;;;;5.08;100.00;97555.72;5053100;28;20173;-63
2023/01/28 04:30:40;;;;;;;1.80;1.70;;;;;;;4.78;100.00;97485.00;5053087;28;20187;-63
2023/01/28 04:33:06;;;;;;;1.88;1.77;;;;;;;4.82;100.00;97510.34;5052673;28;20239;-63
2023/01/28 04:35:31;;;;;;;1.83;1.73;;;;;;;5.11;100.00;97567.53;5053071;28;20170;-63
2023/01/28 04:37:56;;;;;;;1.60;1.50;;;;;;;4.82;100.00;97515.47;5052905;28;20194;-63
2023/01/28 04:40:22;;;;;;;1.30;1.30;;;;;;;5.11;100.00;97568.38;5053249;28;20176;-64
2023/01/28 04:42:54;;;;;;;1.80;1.70;;;;;;;4.95;100.00;97562.50;5052963;28;20599;-64
2023/01/28 04:45:20;;;;;;;1.77;1.67;;;;;;;4.86;100.00;97526.38;5052887;28;20632;-63
2023/01/28 04:47:46;;;;;;;1.58;1.48;;;;;;;5.11;100.00;97567.53;5052776;28;20210;-63
2023/01/28 04:50:11;;;;;;;2.75;2.58;;;;;;;4.69;100.00;97518.84;5052718;28;20181;-64
2023/01/28 04:52:36;;;;;;;2.50;2.30;;;;;;;4.66;100.00;97529.28;5052780;28;20177;-64
2023/01/28 04:55:02;;;;;;;1.90;1.80;;;;;;;4.38;100.00;97491.66;5052930;28;20591;-64
2023/01/28 04:57:28;;;;;;;1.98;1.88;;;;;;;5.01;100.00;97587.78;5052653;28;20644;-63
2023/01/28 04:59:53;;;;;;;7.88;3.00;;;;;;;4.93;100.00;97579.72;5053138;28;20193;-63
2023/01/28 05:02:19;;;;;;;4.22;2.92;;;;;;;4.95;100.00;97580.44;5052912;28;20649;-64
2023/01/28 05:04:44;;;;;;;3.70;2.80;;;;;;;5.03;100.00;97595.38;5052851;28;20219;-64
2023/01/28 05:07:10;;;;;;;2.00;1.90;;;;;;;4.97;100.00;97596.59;5052453;28;20205;-64
2023/01/28 05:09:35;;;;;;;1.67;1.60;;;;;;;4.63;100.00;97543.09;5052509;28;20196;-64
2023/01/28 05:12:01;;;;;;;2.45;2.03;;;;;;;4.76;100.00;97564.53;5052691;28;20210;-64
2023/01/28 05:14:27;;;;;;;2.00;1.90;;;;;;;4.95;100.00;97600.16;5052358;28;20174;-64
2023/01/28 05:16:52;;;;;;;2.42;2.28;;;;;;;4.36;100.00;97508.00;5052895;28;20273;-64
2023/01/28 05:19:18;;;;;;;2.60;2.42;;;;;;;4.69;100.00;97564.97;5052336;28;20181;-64
2023/01/28 05:21:43;;;;;;;2.13;1.90;;;;;;;4.76;100.00;97573.94;5052332;28;20170;-64
2023/01/28 05:24:09;;;;;;;2.00;1.90;;;;;;;4.88;100.00;97583.47;5052381;28;20174;-64
2023/01/28 05:26:36;;;;;;;1.75;1.65;;;;;;;5.08;100.00;97599.31;5052178;28;20753;-64
2023/01/28 05:29:01;;;;;;;2.97;1.63;;;;;;;5.19;100.00;97611.50;5051919;28;20188;-64
2023/01/28 05:31:27;;;;;;;1.90;1.80;;;;;;;4.75;100.00;97542.38;5052223;28;20186;-64
2023/01/28 05:33:52;;;;;;;1.85;1.75;;;;;;;4.90;100.00;97569.66;5052192;28;20174;-64
2023/01/28 05:36:18;;;;;;;2.00;1.90;;;;;;;4.77;100.00;97576.41;5052509;28;20654;-64
2023/01/28 05:38:43;;;;;;;1.90;1.80;;;;;;;4.64;100.00;97564.41;5052498;28;20552;-64
2023/01/28 05:41:09;;;;;;;2.17;2.08;;;;;;;4.69;100.00;97586.31;5052181;28;20538;-64
2023/01/28 05:43:34;;;;;;;2.30;2.20;;;;;;;4.61;100.00;97572.28;5052741;28;20181;-64
2023/01/28 05:45:59;;;;;;;2.72;2.53;;;;;;;4.68;100.00;97584.66;5056173;28;20209;-64
2023/01/28 05:48:25;;;;;;;4.40;2.72;;;;;;;4.87;100.00;97627.94;5056175;28;20173;-64
2023/01/28 05:50:50;;;;;;;3.22;2.92;;;;;;;4.50;100.00;97574.63;5056692;28;20174;-64
2023/01/28 05:53:16;;;;;;;2.30;2.20;;;;;;;4.78;100.00;97629.31;5056332;28;20192;-64
2023/01/28 05:55:41;;;;;;;1.90;1.80;;;;;;;4.85;100.00;97645.97;5056072;28;20249;-64
2023/01/28 05:58:06;;;;;;;2.28;2.08;;;;;;;4.85;100.00;97648.53;5055958;28;20268;-64
2023/01/28 06:00:32;;;;;;;2.70;2.50;;;;;;;4.58;100.00;97614.28;5056243;28;20184;-64
2023/01/28 06:02:57;;;;;;;2.17;2.08;;;;;;;4.62;100.00;97605.47;5055882;28;20264;-64
2023/01/28 06:05:23;;;;;;;4.20;3.80;;;;;;;4.66;100.00;97606.97;5056352;28;20537;-64
2023/01/28 06:07:48;;;;;;;2.85;2.65;;;;;;;4.65;100.00;97600.19;5055740;28;20212;-64
2023/01/28 06:10:16;;;;;;;2.42;2.30;;;;;;;4.62;100.00;97605.47;5056522;28;20177;-64
2023/01/28 06:12:42;;;;;;;2.97;2.78;;;;;;;4.94;100.00;97657.44;5055812;28;20582;-64
2023/01/28 06:15:08;;;;;;;3.60;3.30;;;;;;;4.72;100.00;97616.84;5056204;28;20236;-64
2023/01/28 06:17:34;;;;;;;2.58;2.47;;;;;;;5.11;100.00;97670.91;5055542;28;20182;-64
2023/01/28 06:19:59;;;;;;;5.85;3.80;;;;;;;4.75;100.00;97616.69;5055569;28;20182;-64
2023/01/28 06:22:24;;;;;;;2.80;2.47;;;;;;;4.90;100.00;97635.47;5055774;28;20537;-64
2023/01/28 06:24:50;;;;;;;2.25;2.15;;;;;;;5.17;100.00;97680.81;5055536;28;20178;-64
2023/01/28 06:27:15;;;;;;;2.05;1.95;;;;;;;5.11;100.00;97676.06;5055060;28;20679;-64
2023/01/28 06:29:40;;;;;;;2.17;2.08;;;;;;;4.66;100.00;97603.59;5055696;28;20256;-64
2023/01/28 06:32:06;;;;;;;2.30;2.20;;;;;;;5.30;100.00;97699.69;5073624;28;20189;-64
2023/01/28 06:34:31;;;;;;;2.58;2.40;;;;;;;5.31;100.00;97703.91;5073180;28;20189;-64
2023/01/28 06:36:57;;;;;;;2.90;2.70;;;;;;;5.01;100.00;97664.66;5072273;28;20238;-64
2023/01/28 06:39:22;;;;;;;3.88;3.35;;;;;;;4.97;100.00;97647.00;5072043;28;20185;-64
2023/01/28 06:41:51;;;;;;;3.63;3.00;;;;;;;5.32;100.00;97715.00;5072106;28;20189;-64
2023/01/28 06:44:16;;;;;;;3.58;3.28;;;;;;;5.10;100.00;97669.28;5072175;28;20264;-64
2023/01/28 06:46:42;;;;;;;3.13;2.83;;;;;;;5.35;100.00;97719.94;5071575;28;20355;-65
2023/01/28 06:49:07;;;;;;;2.95;2.75;;;;;;;5.15;100.00;97681.81;5072157;28;20188;-65
2023/01/28 06:51:33;;;;;;;3.35;3.15;;;;;;;5.32;100.00;97715.84;5071477;28;20185;-65
2023/01/28 06:53:58;;;;;;;3.75;3.10;;;;;;;5.28;100.00;97709.22;5071406;28;20275;-65
2023/01/28 06:56:24;;;;;;;2.75;2.55;;;;;;;5.04;100.00;97674.75;5071625;28;20204;-65
2023/01/28 06:58:49;;;;;;;2.72;2.53;;;;;;;5.32;100.00;97713.28;5071882;28;20192;-65
2023/01/28 07:01:14;;;;;;;3.58;3.03;;;;;;;5.07;100.00;97674.56;5071353;28;20232;-65
2023/01/28 07:03:40;;;;;;;2.78;2.45;;;;;;;5.11;100.00;97677.78;5057899;28;20656;-65
2023/01/28 07:06:05;;;;;;;2.50;2.30;;;;;;;5.20;100.00;97693.44;5053263;28;20198;-65
2023/01/28 07:08:31;;;;;;;2.80;2.60;;;;;;;5.19;100.00;97688.44;5053222;28;20192;-64
2023/01/28 07:10:57;;;;;;;2.08;1.98;;;;;;;5.36;100.00;97721.59;5053534;28;20177;-65
2023/01/28 07:13:23;;;;;;;3.05;2.85;;;;;;;5.11;100.00;97678.63;5053594;28;20189;-65
2023/01/28 07:15:49;;;;;;;2.85;2.60;;;;;;;5.14;100.00;97691.25;5053403;28;20185;-65
2023/01/28 07:18:15;;;;;;;2.17;1.98;;;;;;;5.42;100.00;97742.56;5053309;28;20182;-65
2023/01/28 07:20:40;;;;;;;3.35;3.05;;;;;;;5.14;100.00;97691.25;5053126;28;20177;-65
2023/01/28 07:23:06;;;;;;;3.97;3.15;;;;;;;5.15;100.00;97695.47;5053477;28;20596;-65
2023/01/28 07:25:31;;;;;;;3.97;2.63;;;;;;;5.40;100.00;97726.47;5053208;28;20181;-63
2023/01/28 07:27:57;;;;;;;3.22;2.92;;;;;;;5.42;100.00;97739.19;5053818;28;20177;-64
2023/01/28 07:30:23;;;;;;;4.45;3.53;;;;;;;5.19;100.00;97709.75;5053274;28;20196;-65
2023/01/28 07:32:53;;;;;;;4.13;2.63;;;;;;;5.50;100.00;97758.34;5053659;28;20193;-64
2023/01/28 07:35:18;;;;;;;2.22;2.13;;;;;;;5.32;100.00;97720.97;5053239;28;20178;-65
2023/01/28 07:37:53;;;;;;;2.90;2.70;;;;;;;5.63;100.00;97764.41;5014695;28;1123048;-64
2023/01/28 07:40:19;;;;;;;2.83;2.53;;;;;;;5.36;100.00;97713.91;5054208;28;20269;-65
2023/01/28 07:42:44;;;;;;;3.15;2.88;;;;;;;5.65;100.00;97749.75;5054094;28;20557;-65
2023/01/28 07:45:10;;;;;;;2.50;2.30;;;;;;;5.41;100.00;97710.16;5053966;28;20705;-65
2023/01/28 07:47:35;;;;;;;2.80;2.50;;;;;;;5.53;100.00;97718.88;5054748;28;20197;-64
2023/01/28 07:50:01;;;;;;;3.55;2.60;;;;;;;5.73;100.00;97772.38;5053895;28;20552;-65
2023/01/28 07:52:26;;;;;;;2.55;2.20;;;;;;;5.49;100.00;97718.19;5053857;28;20193;-65
2023/01/28 07:54:52;;;;;;;2.75;2.55;;;;;;;5.75;100.00;97775.69;5053777;28;20590;-65
2023/01/28 07:57:22;;;;;;;4.25;3.20;;;;;;;5.68;100.00;97770.09;5053738;28;20683;-65
2023/01/28 07:59:50;;;;;;;3.10;2.80;;;;;;;5.82;100.00;97782.97;5053755;28;20260;-65
2023/01/28 08:02:17;;;;;;;3.55;3.10;;;;;;;5.87;100.00;97791.22;5053944;28;20181;-65
2023/01/28 08:04:43;;;;;;;3.22;3.00;;;;;;;5.56;100.00;97740.03;5053680;28;20177;-65
2023/01/28 08:07:08;;;;;;;2.63;2.42;;;;;;;5.94;100.00;97795.06;5052719;28;20210;-65
2023/01/28 08:09:34;;;;;;;8.52;4.63;;;;;;;5.61;100.00;97740.59;5053358;28;20176;-65
2023/01/28 08:12:02;;;;;;;3.42;3.15;;;;;;;5.64;100.00;97748.09;5053481;28;20178;-65
2023/01/28 08:14:28;;;;;;;3.50;3.20;;;;;;;5.88;100.00;97789.50;5051449;28;20223;-65
2023/01/28 08:16:53;;;;;;;4.80;3.90;;;;;;;6.10;100.00;97813.78;5051815;28;20194;-65
2023/01/28 08:19:20;;;;;;;3.75;3.35;;;;;;;6.08;100.00;97825.91;5051056;28;20319;-65
2023/01/28 08:21:49;;;;;;;4.57;4.18;;;;;;;6.07;100.00;97825.97;5050967;28;20613;-65
2023/01/28 08:24:15;;;;;;;5.57;4.45;;;;;;;6.05;100.00;97815.78;5050897;28;20205;-65
2023/01/28 08:26:40;;;;;;;3.38;3.08;;;;;;;6.06;100.00;97807.16;5050924;28;20256;-65
2023/01/28 08:29:05;;;;;;;4.57;3.70;;;;;;;6.05;100.00;97818.34;5050843;28;20173;-65
2023/01/28 08:31:31;;;;;;;6.78;4.60;;;;;;;6.12;100.00;97831.66;5051072;28;20584;-65
2023/01/28 08:33:56;;;;;;;6.95;5.57;;;;;;;5.78;100.00;97775.50;5051558;28;20258;-65
2023/01/28 08:36:22;;;;;;;4.68;3.78;;;;;;;6.08;100.00;97825.91;5050538;28;20222;-65
2023/01/28 08:38:54;;;;;;;6.13;5.00;;;;;;;5.88;100.00;97779.22;5051497;28;20322;-65
2023/01/28 08:41:22;;;;;;;5.18;3.83;;;;;;;5.93;100.00;97795.97;5050573;28;20177;-65
2023/01/28 08:43:48;;;;;;;9.35;4.93;;;;;;;6.30;100.00;97831.38;5051377;28;20275;-65
2023/01/28 08:46:14;;;;;;;5.32;4.30;;;;;;;6.31;100.00;97837.34;5050622;28;20665;-64
2023/01/28 08:48:39;;;;;;;4.18;3.72;;;;;;;6.37;100.00;97835.22;5050342;28;20185;-65
2023/01/28 08:51:05;;;;;;;6.78;3.50;;;;;;;6.31;100.00;97822.75;5050840;28;20193;-65
2023/01/28 08:53:30;;;;;;;3.78;2.80;;;;;;;6.55;100.00;97862.38;5043152;28;20183;-65
2023/01/28 08:55:55;;;;;;;4.10;2.47;;;;;;;6.05;88.02;97753.31;5044116;28;20189;-66
2023/01/28 08:58:21;;;;;;;3.40;3.10;;;;;;;6.10;85.07;97756.44;5045611;28;20189;-65
2023/01/28 09:00:47;;;;;;;3.20;3.00;;;;;;;6.45;88.05;97817.59;5033271;28;20179;-66
2023/01/28 09:03:12;;;;;;;4.30;3.45;;;;;;;6.26;87.25;97763.13;5032466;28;20174;-65
2023/01/28 09:05:37;;;;;;;3.08;2.88;;;;;;;6.93;85.88;97867.72;5032475;28;20208;-66
2023/01/28 09:08:05;;;;;;;3.53;3.22;;;;;;;6.80;83.33;97823.09;5032502;28;20175;-66
2023/01/28 09:10:31;;;;;;;4.03;3.72;;;;;;;6.63;83.78;97788.19;5032714;28;20174;-66
2023/01/28 09:12:57;;;;;;;5.25;3.78;;;;;;;7.03;82.47;97850.78;5033007;28;20236;-66
2023/01/28 09:15:22;;;;;;;2.72;2.53;;;;;;;7.10;81.61;97870.88;5032439;28;20717;-65
2023/01/28 09:17:48;;;;;;;3.20;3.00;;;;;;;6.78;82.62;97814.69;5032846;28;20182;-66
2023/01/28 09:20:13;;;;;;;2.33;2.13;;;;;;;6.95;77.77;97868.44;5032329;28;20240;-65
2023/01/28 09:22:39;;;;;;;2.03;1.83;;;;;;;6.92;80.40;97869.44;5032280;28;20178;-66
2023/01/28 09:25:06;;;;;;;2.83;2.20;;;;;;;6.71;81.28;97824.50;5032570;28;20170;-66
2023/01/28 09:27:32;;;;;;;2.45;2.25;;;;;;;6.52;79.60;97780.31;5032192;28;20205;-62
2023/01/28 09:29:57;;;;;;;2.70;2.50;;;;;;;6.98;80.65;97863.94;5031082;28;20175;-62
2023/01/28 09:32:23;;;;;;;2.88;2.67;;;;;;;6.75;79.91;97817.44;5032142;28;20177;-64
2023/01/28 09:34:50;;;;;;;6.20;4.10;;;;;;;6.69;83.08;97826.34;5060745;28;20216;-64
2023/01/28 09:37:17;;;;;;;3.50;3.20;;;;;;;6.92;82.83;97859.16;5059421;28;20586;-64
2023/01/28 09:39:42;;;;;;;3.00;2.40;;;;;;;6.80;80.65;97821.38;5058146;28;20745;-62
2023/01/28 09:42:26;;;;;;;5.95;3.88;;;;;;;7.09;84.00;97873.53;5060989;28;20264;-62
2023/01/28 09:44:54;;;;;;;3.80;3.30;;;;;;;7.14;80.32;97876.63;5058250;28;20687;-64
2023/01/28 09:47:25;;;;;;;4.32;2.50;;;;;;;6.66;80.53;97818.00;5058536;28;20185;-64
2023/01/28 09:49:56;;;;;;;2.70;2.50;;;;;;;6.46;79.46;97787.59;5060082;28;20208;-65
2023/01/28 09:52:24;;;;;;;3.00;2.70;;;;;;;6.95;82.17;97863.28;5059608;28;20261;-61
2023/01/28 09:54:52;;;;;;;4.60;3.65;;;;;;;6.73;82.88;97830.41;5018106;28;20597;-64
2023/01/28 09:57:36;;;;;;;2.40;2.30;;;;;;;6.91;80.97;97879.81;5019326;28;20673;-61
2023/01/28 10:00:03;;;;;;;5.30;2.55;;;;;;;6.68;81.45;97823.88;5019174;28;20589;-62
2023/01/28 10:02:49;;;;;;;2.63;2.38;;;;;;;6.64;80.12;97818.09;5018840;28;20183;-63
2023/01/28 10:05:22;;;;;;;2.72;2.53;;;;;;;7.02;80.24;97880.81;5022307;28;20194;-63
2023/01/28 10:08:12;;;;;;;3.05;2.85;;;;;;;7.04;78.71;97876.41;5021294;28;20755;-64
2023/01/28 10:10:40;;;;;;;3.88;3.58;;;;;;;6.85;79.88;97855.34;5029708;28;20179;-59
2023/01/28 10:13:18;;;;;;;3.90;3.60;;;;;;;6.88;79.94;97885.97;5009904;28;20662;-57
2023/01/28 10:15:53;;;;;;;2.85;2.65;;;;;;;6.37;80.41;97789.00;5009469;28;20642;-60
2023/01/28 10:18:30;;;;;;;2.80;2.60;;;;;;;6.41;79.30;97795.56;5009724;28;20202;-64
2023/01/28 10:21:14;;;;;;;2.60;2.40;;;;;;;6.86;79.42;97869.00;4989586;28;20191;-62
2023/01/28 10:23:50;;;;;;;2.50;2.30;;;;;;;6.82;79.37;97852.13;4989401;28;20270;-62
2023/01/28 10:26:22;;;;;;;2.67;2.47;;;;;;;6.94;79.01;97877.09;4989242;28;20219;-62
2023/01/28 10:28:58;;;;;;;4.25;3.85;;;;;;;6.86;79.64;97864.69;4990491;28;20223;-62
2023/01/28 10:31:31;;;;;;;2.58;2.38;;;;;;;6.87;80.02;97850.91;4995353;28;20676;-62
2023/01/28 10:33:59;;;;;;;4.68;3.67;;;;;;;6.95;78.40;97861.56;5012570;28;20195;-62
2023/01/28 10:36:25;;;;;;;7.88;4.80;;;;;;;6.92;80.36;97855.75;5010581;28;20333;-61
2023/01/28 10:38:50;;;;;;;2.50;2.30;;;;;;;7.02;78.42;97880.81;5010578;28;20677;-61
2023/01/28 10:41:20;;;;;;;2.38;2.28;;;;;;;6.64;78.99;97840.44;5011297;28;20187;-61
2023/01/28 10:43:48;;;;;;;3.28;2.97;;;;;;;6.66;78.20;97841.97;5020408;28;20210;-62
2023/01/28 10:46:16;;;;;;;3.15;2.95;;;;;;;6.95;77.88;97889.84;5032966;28;20210;-62
2023/01/28 10:48:52;;;;;;;2.05;1.95;;;;;;;6.90;77.53;97870.47;5032852;28;20641;-62
2023/01/28 10:51:29;;;;;;;2.22;2.10;;;;;;;6.83;79.38;97857.16;5032094;28;20186;-63
2023/01/28 10:53:54;;;;;;;3.42;3.10;;;;;;;6.88;79.94;97844.84;5030131;28;20189;-63
2023/01/28 10:56:29;;;;;;;4.72;4.05;;;;;;;6.97;78.42;97834.00;5030223;28;20183;-62
2023/01/28 10:59:01;;;;;;;2.50;2.30;;;;;;;7.35;76.80;97886.38;5032139;28;20186;-62
2023/01/28 11:01:47;;;;;;;2.22;2.13;;;;;;;7.47;76.95;97888.16;5032906;28;20186;-62
2023/01/28 11:04:29;;;;;;;2.83;2.50;;;;;;;7.05;75.46;97829.19;5033178;28;20167;-62
2023/01/28 11:07:00;;;;;;;2.70;2.42;;;;;;;7.10;76.10;97876.00;5034111;28;20237;-62
2023/01/28 11:09:30;;;;;;;6.10;4.50;;;;;;;7.14;77.91;97886.94;5034775;28;20535;-63
2023/01/28 11:11:56;;;;;;;4.05;3.65;;;;;;;6.67;77.42;97825.63;5034712;28;20630;-62
2023/01/28 11:14:24;;;;;;;3.78;3.47;;;;;;;6.95;77.01;97887.28;5034682;28;20185;-62
2023/01/28 11:16:52;;;;;;;2.85;2.65;;;;;;;6.60;76.96;97829.50;5034593;28;20190;-62
2023/01/28 11:19:20;;;;;;;4.28;3.88;;;;;;;6.65;77.91;97824.88;5035374;28;20178;-62
2023/01/28 11:21:52;;;;;;;4.60;3.80;;;;;;;6.77;77.83;97836.97;5035086;28;20617;-63
2023/01/28 11:24:22;;;;;;;2.97;2.78;;;;;;;7.23;77.72;97894.09;5034068;28;20210;-62
2023/01/28 11:26:51;;;;;;;3.58;3.28;;;;;;;6.99;75.63;97839.06;5034035;28;20201;-62
2023/01/28 11:29:38;;;;;;;2.80;2.60;;;;;;;7.19;76.21;97878.03;5035014;28;20258;-62
2023/01/28 11:32:06;;;;;;;2.42;2.22;;;;;;;6.89;76.07;97831.09;5034453;28;20171;-62
2023/01/28 11:34:33;;;;;;;3.20;2.95;;;;;;;7.04;76.42;97852.44;5033036;28;20261;-62
2023/01/28 11:37:04;;;;;;;2.50;2.30;;;;;;;7.20;76.53;97892.53;5034378;28;20226;-62
2023/01/28 11:39:30;;;;;;;3.35;3.08;;;;;;;6.71;78.26;97791.09;5033230;28;20274;-62
2023/01/28 11:42:17;;;;;;;4.40;4.00;;;;;;;7.45;76.07;97881.50;5033217;28;20269;-62
2023/01/28 11:44:43;;;;;;;4.82;3.83;;;;;;;7.24;76.45;97829.66;5034119;28;20174;-62
2023/01/28 11:47:24;;;;;;;3.05;2.78;;;;;;;7.54;75.80;97886.88;5033956;28;20202;-62
2023/01/28 11:50:23;;;;;;;5.00;4.03;;;;;;;7.61;76.54;97887.28;5034671;28;20158;-62
2023/01/28 11:52:57;;;;;;;3.60;3.30;;;;;;;7.66;75.30;97888.66;5034565;28;20202;-62
2023/01/28 11:55:49;;;;;;;3.58;3.33;;;;;;;7.57;76.84;97870.41;5034208;28;20215;-62
2023/01/28 11:58:23;;;;;;;3.20;3.00;;;;;;;7.70;75.76;97895.22;5034236;28;20179;-62
2023/01/28 12:01:41;;;;;;;4.28;3.60;;;;;;;7.71;75.71;97899.47;5033863;28;20175;-62
2023/01/28 12:04:37;;;;;;;3.20;3.00;;;;;;;7.59;76.25;97889.97;5012431;28;20187;-62
2023/01/28 12:07:24;;;;;;;4.57;4.03;;;;;;;7.29;77.97;97845.63;5011863;28;20238;-62
2023/01/28 12:09:52;;;;;;;5.40;4.25;;;;;;;7.46;76.87;97891.69;5011941;28;20255;-63
2023/01/28 12:12:20;;;;;;;4.07;3.67;;;;;;;7.53;77.33;97887.81;5011451;28;20179;-62
2023/01/28 12:14:57;;;;;;;3.40;3.20;;;;;;;7.67;77.96;97892.03;5011996;28;20194;-61